createdAt,value
2022-08-22T00:00:35.064Z,1.04
2022-08-22T00:01:35.171Z,1.04
2022-08-22T00:02:35.348Z,1.04
2022-08-22T00:03:05.284Z,1.04
2022-08-22T00:03:05.367Z,1.04
2022-08-22T00:03:05.405Z,1.04
2022-08-22T00:03:14.169Z,1.04
2022-08-22T00:03:35.766Z,1.04
2022-08-22T00:04:35.577Z,1.04
2022-08-22T00:05:35.721Z,1.04
2022-08-22T00:06:35.818Z,1.04
2022-08-22T00:07:35.922Z,1.04
2022-08-22T00:08:36.027Z,1.04
2022-08-22T00:09:36.125Z,1.04
2022-08-22T00:10:36.281Z,1.04
2022-08-22T00:11:36.380Z,1.04
2022-08-22T00:12:36.480Z,1.04
2022-08-22T00:13:36.632Z,1.04
2022-08-22T00:14:36.739Z,1.04
2022-08-22T00:15:42.742Z,1.04
2022-08-22T00:16:36.992Z,1.04
2022-08-22T00:17:37.091Z,1.04
2022-08-22T00:18:37.194Z,1.04
2022-08-22T00:19:37.310Z,1.04
2022-08-22T00:20:37.450Z,1.04
2022-08-22T00:21:37.932Z,1.04
2022-08-22T00:22:37.706Z,1.04
2022-08-22T00:23:37.853Z,1.04
2022-08-22T00:24:37.956Z,1.04
2022-08-22T00:25:38.062Z,1.04
2022-08-22T00:26:41.144Z,1.04
2022-08-22T00:27:38.314Z,1.04
2022-08-22T00:28:38.416Z,1.04
2022-08-22T00:29:38.571Z,1.04
2022-08-22T00:30:38.716Z,1.04
2022-08-22T00:31:38.868Z,1.04
2022-08-22T00:32:39.020Z,1.04
2022-08-22T00:33:39.124Z,1.04
2022-08-22T00:34:39.228Z,1.04
2022-08-22T00:35:44.481Z,1.04
2022-08-22T00:36:39.533Z,1.04
2022-08-22T00:37:39.629Z,1.04
2022-08-22T00:38:39.735Z,1.04
2022-08-22T00:39:39.918Z,1.04
2022-08-22T00:40:39.991Z,1.04
2022-08-22T00:41:40.149Z,1.04
2022-08-22T00:42:40.242Z,1.04
2022-08-22T00:43:40.340Z,1.04
2022-08-22T00:44:40.444Z,1.04
2022-08-22T00:45:40.594Z,1.04
2022-08-22T00:46:40.697Z,1.04
2022-08-22T00:47:40.848Z,1.04
2022-08-22T00:48:40.999Z,1.04
2022-08-22T00:49:41.103Z,1.04
2022-08-22T00:50:41.255Z,1.04
2022-08-22T00:51:41.935Z,1.04
2022-08-22T00:52:41.508Z,1.04
2022-08-22T00:53:41.611Z,1.04
2022-08-22T00:54:41.769Z,1.04
2022-08-22T00:55:41.879Z,1.04
2022-08-22T00:56:42.377Z,1.04
2022-08-22T00:57:42.118Z,1.04
2022-08-22T00:58:42.223Z,1.04
2022-08-22T00:59:42.326Z,1.04
2022-08-22T01:00:42.478Z,1.04
2022-08-22T01:01:43.176Z,1.04
2022-08-22T01:02:42.693Z,1.04
2022-08-22T01:03:42.797Z,1.04
2022-08-22T01:04:42.942Z,1.04
2022-08-22T01:05:43.033Z,1.04
2022-08-22T01:06:43.143Z,1.04
2022-08-22T01:07:43.289Z,1.04
2022-08-22T01:08:43.442Z,1.04
2022-08-22T01:09:43.593Z,1.04
2022-08-22T01:10:43.744Z,1.04
2022-08-22T01:11:43.891Z,1.04
2022-08-22T01:12:43.995Z,1.04
2022-08-22T01:13:44.149Z,1.04
2022-08-22T01:14:44.305Z,1.04
2022-08-22T01:15:44.408Z,1.04
2022-08-22T01:16:44.503Z,1.04
2022-08-22T01:17:44.604Z,1.04
2022-08-22T01:18:44.709Z,1.04
2022-08-22T01:19:44.813Z,1.04
2022-08-22T01:20:44.965Z,1.04
2022-08-22T01:21:45.062Z,1.04
2022-08-22T01:22:45.166Z,1.04
2022-08-22T01:23:45.266Z,1.04
2022-08-22T01:24:45.723Z,1.04
2022-08-22T01:25:45.479Z,1.04
2022-08-22T01:26:45.625Z,1.04
2022-08-22T01:27:45.724Z,1.04
2022-08-22T01:28:46.162Z,1.04
2022-08-22T01:29:45.982Z,1.04
2022-08-22T01:30:46.082Z,1.04
2022-08-22T01:31:46.236Z,1.04
2022-08-22T01:32:46.334Z,1.04
2022-08-22T01:33:46.485Z,1.04
2022-08-22T01:34:46.639Z,1.04
2022-08-22T01:35:46.793Z,1.04
2022-08-22T01:36:46.893Z,1.04
2022-08-22T01:37:46.996Z,1.04
2022-08-22T01:38:47.094Z,1.04
2022-08-22T01:39:47.249Z,1.04
2022-08-22T01:40:53.663Z,1.04
2022-08-22T01:41:47.452Z,1.04
2022-08-22T01:42:47.606Z,1.04
2022-08-22T01:43:59.495Z,1.04
2022-08-22T01:44:47.873Z,1.04
2022-08-22T01:45:48.012Z,1.04
2022-08-22T01:46:48.110Z,1.04
2022-08-22T01:47:48.210Z,1.04
2022-08-22T01:48:48.328Z,1.04
2022-08-22T01:49:48.467Z,1.04
2022-08-22T01:50:48.617Z,1.04
2022-08-22T01:51:48.721Z,1.04
2022-08-22T01:52:48.822Z,1.04
2022-08-22T01:53:48.925Z,1.04
2022-08-22T01:54:49.076Z,1.04
2022-08-22T01:55:49.230Z,1.04
2022-08-22T01:56:49.343Z,1.04
2022-08-22T01:57:49.435Z,1.04
2022-08-22T01:58:49.583Z,1.04
2022-08-22T01:59:49.692Z,1.04
2022-08-22T02:00:49.865Z,1.04
2022-08-22T02:01:49.940Z,1.04
2022-08-22T02:02:50.043Z,1.04
2022-08-22T02:03:50.151Z,1.04
2022-08-22T02:04:50.250Z,1.04
2022-08-22T02:05:50.345Z,1.04
2022-08-22T02:06:50.501Z,1.04
2022-08-22T02:07:50.653Z,1.04
2022-08-22T02:08:50.800Z,1.04
2022-08-22T02:09:50.904Z,1.04
2022-08-22T02:10:51.007Z,1.04
2022-08-22T02:11:51.113Z,1.04
2022-08-22T02:12:51.208Z,1.04
2022-08-22T02:13:51.312Z,1.04
2022-08-22T02:14:51.425Z,1.04
2022-08-22T02:15:51.518Z,1.04
2022-08-22T02:16:51.618Z,1.04
2022-08-22T02:17:51.720Z,1.04
2022-08-22T02:18:51.873Z,1.04
2022-08-22T02:19:51.975Z,1.04
2022-08-22T02:20:52.128Z,1.04
2022-08-22T02:21:52.234Z,1.04
2022-08-22T02:22:52.334Z,1.04
2022-08-22T02:23:52.436Z,1.04
2022-08-22T02:24:52.544Z,1.04
2022-08-22T02:25:52.687Z,1.04
2022-08-22T02:26:52.835Z,1.04
2022-08-22T02:27:53.022Z,1.04
2022-08-22T02:28:56.786Z,1.04
2022-08-22T02:29:53.242Z,1.04
2022-08-22T02:30:53.345Z,1.04
2022-08-22T02:31:53.495Z,1.04
2022-08-22T02:32:53.596Z,1.04
2022-08-22T02:33:53.700Z,1.04
2022-08-22T02:34:53.858Z,1.04
2022-08-22T02:35:54.003Z,1.04
2022-08-22T02:36:54.107Z,1.04
2022-08-22T02:37:54.214Z,1.04
2022-08-22T02:38:54.327Z,1.04
2022-08-22T02:39:54.510Z,1.04
2022-08-22T02:40:54.565Z,1.04
2022-08-22T02:41:54.667Z,1.04
2022-08-22T02:42:54.819Z,1.04
2022-08-22T02:43:54.977Z,1.04
2022-08-22T02:44:55.082Z,1.04
2022-08-22T02:45:55.181Z,1.04
2022-08-22T02:46:55.278Z,1.04
2022-08-22T02:47:55.427Z,1.04
2022-08-22T02:48:55.582Z,1.04
2022-08-22T02:49:56.118Z,1.04
2022-08-22T02:50:55.883Z,1.04
2022-08-22T02:51:55.983Z,1.04
2022-08-22T02:52:56.092Z,1.04
2022-08-22T02:53:56.189Z,1.04
2022-08-22T02:54:56.295Z,1.04
2022-08-22T02:55:56.395Z,1.04
2022-08-22T02:56:56.497Z,1.04
2022-08-22T02:57:56.650Z,1.04
2022-08-22T02:58:59.310Z,1.04
2022-08-22T02:59:56.900Z,1.04
2022-08-22T03:00:57.093Z,1.04
2022-08-22T03:01:57.161Z,1.04
2022-08-22T03:02:57.259Z,1.04
2022-08-22T03:03:57.762Z,1.04
2022-08-22T03:04:57.516Z,1.04
2022-08-22T03:06:00.993Z,1.04
2022-08-22T03:06:57.763Z,1.04
2022-08-22T03:07:58.025Z,1.04
2022-08-22T03:08:57.966Z,1.04
2022-08-22T03:09:58.121Z,1.04
2022-08-22T03:10:58.269Z,1.04
2022-08-22T03:11:58.375Z,1.04
2022-08-22T03:12:58.524Z,1.04
2022-08-22T03:13:58.676Z,1.04
2022-08-22T03:14:58.781Z,1.04
2022-08-22T03:15:58.932Z,1.04
2022-08-22T03:16:59.032Z,1.04
2022-08-22T03:17:59.265Z,1.04
2022-08-22T03:18:59.341Z,1.04
2022-08-22T03:19:59.437Z,1.04
2022-08-22T03:20:59.591Z,1.04
2022-08-22T03:21:59.695Z,1.04
2022-08-22T03:22:59.799Z,1.04
2022-08-22T03:23:59.949Z,1.04
2022-08-22T03:25:00.102Z,1.04
2022-08-22T03:26:00.198Z,1.04
2022-08-22T03:27:00.355Z,2
2022-08-22T03:28:00.576Z,2
2022-08-22T03:29:00.657Z,2
2022-08-22T03:30:00.759Z,2
2022-08-22T03:31:00.870Z,2
2022-08-22T03:32:00.961Z,2
2022-08-22T03:33:01.114Z,3.04
2022-08-22T03:34:01.218Z,3.04
2022-08-22T03:35:01.368Z,4
2022-08-22T03:36:01.469Z,4
2022-08-22T03:37:01.623Z,5.04
2022-08-22T03:38:01.724Z,5.04
2022-08-22T03:39:01.828Z,6
2022-08-22T03:40:01.969Z,7.04
2022-08-22T03:41:02.082Z,8
2022-08-22T03:42:02.232Z,10
2022-08-22T03:43:02.338Z,11.04
2022-08-22T03:44:02.524Z,13.04
2022-08-22T03:45:02.586Z,15.04
2022-08-22T03:46:02.692Z,18
2022-08-22T03:47:02.843Z,21.04
2022-08-22T03:48:02.945Z,24
2022-08-22T03:49:03.040Z,29.04
2022-08-22T03:50:03.150Z,33.04
2022-08-22T03:51:03.299Z,39.04
2022-08-22T03:52:03.401Z,45.04
2022-08-22T03:53:03.550Z,52
2022-08-22T03:54:03.655Z,60
2022-08-22T03:55:03.757Z,67.04
2022-08-22T03:56:03.908Z,98
2022-08-22T03:57:04.065Z,111.04
2022-08-22T03:58:04.170Z,123.04
2022-08-22T03:59:10.049Z,137.04
2022-08-22T04:00:04.370Z,152
2022-08-22T04:01:04.576Z,169.12
2022-08-22T04:02:24.592Z,188
2022-08-22T04:03:04.739Z,207.04
2022-08-22T04:04:04.873Z,226.08
2022-08-22T04:05:05.338Z,245.12
2022-08-22T04:06:06.151Z,266.08
2022-08-22T04:07:05.455Z,286.08
2022-08-22T04:08:05.379Z,307.04
2022-08-22T04:09:05.499Z,328
2022-08-22T04:10:05.582Z,350.08
2022-08-22T04:11:05.739Z,371.2
2022-08-22T04:12:05.839Z,392
2022-08-22T04:13:05.947Z,414.08
2022-08-22T04:14:06.092Z,442.24
2022-08-22T04:15:06.194Z,470.08
2022-08-22T04:16:06.343Z,500.16
2022-08-22T04:17:06.446Z,530.24
2022-08-22T04:18:06.600Z,562.24
2022-08-22T04:19:07.991Z,596.16
2022-08-22T04:20:06.854Z,629.12
2022-08-22T04:21:07.009Z,666.24
2022-08-22T04:22:07.113Z,707.2
2022-08-22T04:23:07.260Z,745.6
2022-08-22T04:24:07.412Z,789.12
2022-08-22T04:25:08.410Z,831.36
2022-08-22T04:26:10.725Z,879.36
2022-08-22T04:27:07.815Z,928
2022-08-22T04:28:07.972Z,976
2022-08-22T04:29:08.071Z,1025.28
2022-08-22T04:30:08.171Z,1076.48
2022-08-22T04:31:08.277Z,1131.52
2022-08-22T04:32:11.611Z,1185.28
2022-08-22T04:33:08.481Z,1238.4
2022-08-22T04:34:08.595Z,1279.36
2022-08-22T04:35:08.730Z,1395.2
2022-08-22T04:36:08.883Z,1464.32
2022-08-22T04:37:08.992Z,1536
2022-08-22T04:38:09.544Z,1612.8
2022-08-22T04:39:09.287Z,1701.12
2022-08-22T04:40:09.534Z,1781.76
2022-08-22T04:41:09.544Z,1870.08
2022-08-22T04:42:31.052Z,1962.24
2022-08-22T04:43:09.847Z,2056.96
2022-08-22T04:44:09.949Z,2167.04
2022-08-22T04:45:10.051Z,2268.16
2022-08-22T04:46:10.203Z,2373.12
2022-08-22T04:47:10.309Z,2478.08
2022-08-22T04:48:10.411Z,2584.32
2022-08-22T04:49:10.511Z,2693.12
2022-08-22T04:50:10.611Z,2805.76
2022-08-22T04:51:10.761Z,2926.08
2022-08-22T04:52:10.862Z,3054.08
2022-08-22T04:53:10.964Z,3174.4
2022-08-22T04:54:11.071Z,3304.96
2022-08-22T04:55:11.227Z,3450.88
2022-08-22T04:56:11.370Z,3571.2
2022-08-22T04:57:11.485Z,3704.32
2022-08-22T04:58:11.589Z,3832.32
2022-08-22T04:59:11.688Z,3980.8
2022-08-22T05:00:11.855Z,4116.48
2022-08-22T05:01:11.931Z,4249.6
2022-08-22T05:02:12.083Z,4390.4
2022-08-22T05:03:12.237Z,4520.96
2022-08-22T05:04:12.339Z,4666.88
2022-08-22T05:05:13.138Z,4784.64
2022-08-22T05:06:12.642Z,4922.88
2022-08-22T05:07:12.816Z,5066.24
2022-08-22T05:08:12.896Z,5214.72
2022-08-22T05:09:16.148Z,5360.64
2022-08-22T05:10:13.152Z,5493.76
2022-08-22T05:11:13.248Z,5652.48
2022-08-22T05:12:13.402Z,5806.08
2022-08-22T05:13:13.505Z,5949.44
2022-08-22T05:14:13.660Z,6103.04
2022-08-22T05:15:13.811Z,6277.12
2022-08-22T05:16:13.965Z,6446.08
2022-08-22T05:17:15.513Z,6640.64
2022-08-22T05:18:14.265Z,6804.48
2022-08-22T05:19:16.829Z,6988.8
2022-08-22T05:20:14.521Z,7198.72
2022-08-22T05:21:14.634Z,7434.24
2022-08-22T05:22:14.739Z,7792.64
2022-08-22T05:23:17.353Z,8222.72
2022-08-22T05:24:15.022Z,8847.359
2022-08-22T05:25:15.181Z,9379.84
2022-08-22T05:26:15.277Z,9661.439
2022-08-22T05:27:15.381Z,9584.64
2022-08-22T05:28:15.489Z,9605.12
2022-08-22T05:29:15.633Z,9789.439
2022-08-22T05:30:15.790Z,10260.479
2022-08-22T05:31:15.886Z,10762.24
2022-08-22T05:32:15.993Z,11120.64
2022-08-22T05:33:16.092Z,11612.16
2022-08-22T05:34:16.250Z,12083.2
2022-08-22T05:35:16.350Z,12441.6
2022-08-22T05:36:16.463Z,12718.08
2022-08-22T05:37:16.550Z,13834.239
2022-08-22T05:38:16.659Z,14295.04
2022-08-22T05:39:16.808Z,14899.199
2022-08-22T05:40:16.955Z,15257.6
2022-08-22T05:41:17.010Z,15421.439
2022-08-22T05:42:17.164Z,15728.64
2022-08-22T05:43:17.321Z,16046.08
2022-08-22T05:44:17.425Z,16404.48
2022-08-22T05:45:17.569Z,16568.32
2022-08-22T05:46:17.716Z,16762.88
2022-08-22T05:47:17.820Z,17131.52
2022-08-22T05:48:17.922Z,17797.12
2022-08-22T05:49:18.029Z,18411.52
2022-08-22T05:50:18.126Z,19097.6
2022-08-22T05:51:18.276Z,19343.36
2022-08-22T05:52:18.427Z,19271.68
2022-08-22T05:53:18.530Z,18790.4
2022-08-22T05:54:18.634Z,19568.64
2022-08-22T05:55:18.783Z,20070.4
2022-08-22T05:56:18.896Z,20080.64
2022-08-22T05:57:19.043Z,20746.24
2022-08-22T05:58:19.138Z,21176.32
2022-08-22T05:59:19.293Z,21483.52
2022-08-22T06:00:20.354Z,21319.68
2022-08-22T06:01:19.634Z,21258.24
2022-08-22T06:02:19.703Z,21094.4
2022-08-22T06:03:19.803Z,21032.96
2022-08-22T06:04:19.950Z,20705.28
2022-08-22T06:05:20.103Z,20654.08
2022-08-22T06:06:20.203Z,20316.16
2022-08-22T06:07:20.361Z,20142.08
2022-08-22T06:08:20.459Z,20736
2022-08-22T06:09:20.561Z,20643.84
2022-08-22T06:10:20.665Z,21217.28
2022-08-22T06:11:22.020Z,20838.4
2022-08-22T06:12:22.049Z,20572.16
2022-08-22T06:13:22.003Z,21278.72
2022-08-22T06:14:21.226Z,21463.04
2022-08-22T06:15:21.376Z,21176.32
2022-08-22T06:16:21.478Z,21299.2
2022-08-22T06:17:21.578Z,21688.32
2022-08-22T06:18:21.730Z,22732.8
2022-08-22T06:19:21.833Z,23224.32
2022-08-22T06:20:21.932Z,23142.4
2022-08-22T06:21:22.033Z,23388.16
2022-08-22T06:22:22.135Z,23449.6
2022-08-22T06:23:22.293Z,23388.16
2022-08-22T06:24:22.434Z,23285.76
2022-08-22T06:25:22.590Z,23121.92
2022-08-22T06:26:22.692Z,23224.32
2022-08-22T06:27:22.795Z,23429.12
2022-08-22T06:28:22.903Z,23613.44
2022-08-22T06:29:23.052Z,23941.12
2022-08-22T06:30:23.207Z,24309.76
2022-08-22T06:31:23.304Z,24637.44
2022-08-22T06:32:44.685Z,25395.2
2022-08-22T06:33:23.617Z,25436.16
2022-08-22T06:34:23.717Z,25497.6
2022-08-22T06:35:23.863Z,25845.76
2022-08-22T06:36:23.965Z,26214.4
2022-08-22T06:37:24.066Z,26726.4
2022-08-22T06:38:24.172Z,26972.16
2022-08-22T06:39:24.321Z,27750.4
2022-08-22T06:40:24.543Z,28631.04
2022-08-22T06:41:24.628Z,28733.44
2022-08-22T06:42:24.773Z,29327.36
2022-08-22T06:43:24.886Z,29532.16
2022-08-22T06:44:24.984Z,30289.92
2022-08-22T06:45:25.081Z,30392.32
2022-08-22T06:46:25.182Z,31170.56
2022-08-22T06:47:25.286Z,31723.52
2022-08-22T06:48:25.438Z,32133.12
2022-08-22T06:49:25.587Z,32194.56
2022-08-22T06:50:25.746Z,33341.44
2022-08-22T06:51:25.841Z,33832.96
2022-08-22T06:52:25.946Z,35102.72
2022-08-22T06:53:26.061Z,35409.92
2022-08-22T06:54:26.197Z,35840
2022-08-22T06:55:26.309Z,36065.28
2022-08-22T06:56:26.456Z,34959.36
2022-08-22T06:57:26.559Z,37928.96
2022-08-22T06:58:31.024Z,40919.04
2022-08-22T06:59:26.861Z,41185.28
2022-08-22T07:00:27.024Z,44400.64
2022-08-22T07:01:27.183Z,45137.92
2022-08-22T07:02:27.269Z,43745.28
2022-08-22T07:03:27.413Z,44892.16
2022-08-22T07:04:27.514Z,47800.32
2022-08-22T07:05:27.668Z,47431.68
2022-08-22T07:06:27.817Z,47267.84
2022-08-22T07:07:27.972Z,49766.4
2022-08-22T07:08:28.074Z,50913.28
2022-08-22T07:09:28.224Z,51650.56
2022-08-22T07:10:28.381Z,52060.16
2022-08-22T07:11:28.478Z,54804.48
2022-08-22T07:12:28.584Z,56893.44
2022-08-22T07:13:28.687Z,58368
2022-08-22T07:14:28.841Z,59965.44
2022-08-22T07:15:28.952Z,56033.28
2022-08-22T07:16:29.091Z,59514.88
2022-08-22T07:17:29.201Z,58777.6
2022-08-22T07:18:29.297Z,57671.68
2022-08-22T07:19:29.401Z,56156.16
2022-08-22T07:20:29.502Z,55050.24
2022-08-22T07:21:29.649Z,55418.88
2022-08-22T07:22:29.752Z,54599.68
2022-08-22T07:23:29.854Z,57180.16
2022-08-22T07:24:30.007Z,57057.28
2022-08-22T07:25:30.106Z,54026.24
2022-08-22T07:26:30.208Z,47144.96
2022-08-22T07:27:30.364Z,55746.56
2022-08-22T07:28:37.185Z,51036.16
2022-08-22T07:29:30.613Z,57344
2022-08-22T07:30:30.724Z,59064.32
2022-08-22T07:31:31.730Z,60702.72
2022-08-22T07:32:31.022Z,62095.36
2022-08-22T07:33:31.252Z,64102.4
2022-08-22T07:34:31.324Z,64184.32
2022-08-22T07:35:31.425Z,58286.08
2022-08-22T07:36:32.195Z,55664.64
2022-08-22T07:37:31.730Z,63610.88
2022-08-22T07:38:31.918Z,64143.36
2022-08-22T07:39:31.988Z,64921.6
2022-08-22T07:40:32.138Z,66682.88
2022-08-22T07:41:32.239Z,67502.08
2022-08-22T07:42:32.339Z,68198.4
2022-08-22T07:43:32.443Z,69386.24
2022-08-22T07:44:32.543Z,71229.44
2022-08-22T07:45:32.647Z,73195.52
2022-08-22T07:46:32.749Z,76226.56
2022-08-22T07:47:32.910Z,76595.2
2022-08-22T07:48:33.000Z,76185.6
2022-08-22T07:49:33.105Z,79175.68
2022-08-22T07:50:33.205Z,79257.6
2022-08-22T07:51:33.356Z,76881.92
2022-08-22T07:52:33.466Z,76513.28
2022-08-22T07:53:33.564Z,70041.6
2022-08-22T07:54:33.713Z,61644.8
2022-08-22T07:55:33.866Z,61931.52
2022-08-22T07:56:33.966Z,64552.96
2022-08-22T07:57:34.119Z,72130.56
2022-08-22T07:58:34.279Z,76308.48
2022-08-22T07:59:34.434Z,77250.56
2022-08-22T08:00:34.578Z,76554.24
2022-08-22T08:01:34.759Z,79667.2
2022-08-22T08:02:34.772Z,79994.88
2022-08-22T08:03:34.873Z,79216.64
2022-08-22T08:04:39.637Z,77987.84
2022-08-22T08:05:35.132Z,78397.44
2022-08-22T08:06:35.238Z,77946.88
2022-08-22T08:07:35.390Z,77946.88
2022-08-22T08:08:35.490Z,77537.28
2022-08-22T08:09:35.642Z,79626.24
2022-08-22T08:10:35.748Z,79544.32
2022-08-22T08:11:35.891Z,79134.72
2022-08-22T08:12:35.999Z,77414.4
2022-08-22T08:13:36.152Z,76472.32
2022-08-22T08:14:36.256Z,76554.24
2022-08-22T08:15:36.402Z,74506.24
2022-08-22T08:16:36.505Z,72826.88
2022-08-22T08:17:36.610Z,72867.84
2022-08-22T08:18:36.711Z,70737.92
2022-08-22T08:19:36.860Z,70737.92
2022-08-22T08:20:37.015Z,70778.88
2022-08-22T08:21:37.117Z,72212.48
2022-08-22T08:22:37.266Z,74014.72
2022-08-22T08:23:39.516Z,73236.48
2022-08-22T08:24:39.996Z,75530.24
2022-08-22T08:25:37.669Z,73850.88
2022-08-22T08:26:37.771Z,70082.56
2022-08-22T08:27:37.936Z,70041.6
2022-08-22T08:28:38.031Z,72212.48
2022-08-22T08:29:38.181Z,73400.32
2022-08-22T08:30:38.282Z,72540.16
2022-08-22T08:31:43.085Z,74997.76
2022-08-22T08:32:38.587Z,77004.8
2022-08-22T08:33:38.692Z,76021.76
2022-08-22T08:34:38.837Z,78725.12
2022-08-22T08:35:42.275Z,81059.84
2022-08-22T08:36:39.097Z,81100.8
2022-08-22T08:37:39.203Z,83845.12
2022-08-22T08:38:39.309Z,82657.28
2022-08-22T08:39:39.578Z,81797.12
2022-08-22T08:40:39.604Z,89292.8
2022-08-22T08:41:39.754Z,91013.12
2022-08-22T08:42:39.909Z,91258.88
2022-08-22T08:43:40.013Z,92815.36
2022-08-22T08:44:40.113Z,93470.72
2022-08-22T08:45:40.212Z,94044.16
2022-08-22T08:46:40.313Z,93962.23
2022-08-22T08:47:40.414Z,95846.4
2022-08-22T08:48:40.566Z,95436.8
2022-08-22T08:49:42.833Z,95272.96
2022-08-22T08:50:40.873Z,95436.8
2022-08-22T08:51:40.975Z,95191.04
2022-08-22T08:52:41.081Z,94617.6
2022-08-22T08:53:43.249Z,92078.08
2022-08-22T08:54:41.326Z,89702.4
2022-08-22T08:55:41.480Z,90767.36
2022-08-22T08:56:42.754Z,93143.04
2022-08-22T08:57:41.736Z,91095.04
2022-08-22T08:58:41.840Z,90030.08
2022-08-22T08:59:44.108Z,88801.28
2022-08-22T09:00:42.139Z,87736.32
2022-08-22T09:01:42.364Z,88719.36
2022-08-22T09:02:42.743Z,87326.72
2022-08-22T09:03:42.546Z,84459.52
2022-08-22T09:04:42.673Z,56483.84
2022-08-22T09:05:42.752Z,84049.92
2022-08-22T09:06:42.900Z,85278.72
2022-08-22T09:07:43.002Z,83722.24
2022-08-22T09:08:43.158Z,86343.68
2022-08-22T09:09:43.262Z,88145.92
2022-08-22T09:10:43.788Z,90849.28
2022-08-22T09:11:43.511Z,92733.44
2022-08-22T09:12:55.989Z,92979.2
2022-08-22T09:13:43.787Z,96665.6
2022-08-22T09:14:44.325Z,46612.48
2022-08-22T09:15:44.019Z,75325.44
2022-08-22T09:16:45.145Z,96993.28
2022-08-22T09:17:44.327Z,50995.2
2022-08-22T09:18:44.474Z,96829.44
2022-08-22T09:19:44.625Z,97812.48
2022-08-22T09:20:44.782Z,99205.12
2022-08-22T09:21:44.883Z,100024.32
2022-08-22T09:22:49.881Z,101335.04
2022-08-22T09:23:45.146Z,96174.08
2022-08-22T09:24:45.239Z,46817.28
2022-08-22T09:25:45.341Z,66641.92
2022-08-22T09:26:45.446Z,61849.6
2022-08-22T09:27:45.542Z,93962.23
2022-08-22T09:28:46.076Z,100433.91
2022-08-22T09:29:51.600Z,102154.23
2022-08-22T09:30:45.952Z,104202.23
2022-08-22T09:31:47.765Z,102809.6
2022-08-22T09:32:46.159Z,89784.32
2022-08-22T09:33:46.258Z,83804.16
2022-08-22T09:34:46.412Z,70819.84
2022-08-22T09:35:46.559Z,74465.28
2022-08-22T09:36:46.661Z,99860.48
2022-08-22T09:37:46.764Z,56442.88
2022-08-22T09:38:47.897Z,65781.76
2022-08-22T09:39:47.087Z,69591.04
2022-08-22T09:40:47.115Z,74178.56
2022-08-22T09:41:47.222Z,74588.16
2022-08-22T09:42:47.319Z,70492.16
2022-08-22T09:43:48.836Z,63406.08
2022-08-22T09:44:47.523Z,54804.48
2022-08-22T09:45:47.893Z,55132.16
2022-08-22T09:46:47.973Z,50872.32
2022-08-22T09:47:47.829Z,47349.76
2022-08-22T09:48:47.931Z,44113.92
2022-08-22T09:49:48.032Z,41021.44
2022-08-22T09:50:48.137Z,39976.96
2022-08-22T09:51:48.235Z,39833.6
2022-08-22T09:52:48.386Z,40632.32
2022-08-22T09:53:48.539Z,41656.32
2022-08-22T09:54:48.694Z,42229.76
2022-08-22T09:55:50.075Z,41984
2022-08-22T09:56:48.897Z,41984
2022-08-22T09:57:49.048Z,41943.04
2022-08-22T09:58:49.200Z,42516.48
2022-08-22T09:59:49.354Z,43540.48
2022-08-22T10:00:54.653Z,44359.68
2022-08-22T10:01:49.654Z,44810.24
2022-08-22T10:02:49.759Z,45383.68
2022-08-22T10:03:49.909Z,46120.96
2022-08-22T10:04:50.046Z,47554.56
2022-08-22T10:05:50.167Z,45301.76
2022-08-22T10:06:50.267Z,44482.56
2022-08-22T10:07:51.578Z,43581.44
2022-08-22T10:08:50.583Z,43171.84
2022-08-22T10:09:54.901Z,43171.84
2022-08-22T10:10:50.878Z,43376.64
2022-08-22T10:11:51.029Z,43868.16
2022-08-22T10:12:51.135Z,44605.44
2022-08-22T10:13:52.895Z,45383.68
2022-08-22T10:14:51.380Z,45957.12
2022-08-22T10:15:51.481Z,46694.4
2022-08-22T10:16:51.640Z,47513.6
2022-08-22T10:17:51.793Z,47841.28
2022-08-22T10:18:52.698Z,49848.32
2022-08-22T10:19:52.038Z,50995.2
2022-08-22T10:20:52.141Z,52101.12
2022-08-22T10:21:52.252Z,52101.12
2022-08-22T10:22:52.400Z,54149.12
2022-08-22T10:23:52.497Z,59883.52
2022-08-22T10:24:52.603Z,53043.2
2022-08-22T10:25:52.703Z,62177.28
2022-08-22T10:26:52.805Z,63569.92
2022-08-22T10:27:52.957Z,55336.96
2022-08-22T10:28:53.058Z,53207.04
2022-08-22T10:29:53.207Z,53043.2
2022-08-22T10:30:53.365Z,53125.12
2022-08-22T10:31:59.343Z,50094.08
2022-08-22T10:32:53.697Z,48578.56
2022-08-22T10:33:53.716Z,51609.6
2022-08-22T10:34:53.869Z,50954.24
2022-08-22T10:35:54.026Z,45015.04
2022-08-22T10:36:54.126Z,45629.44
2022-08-22T10:37:54.276Z,43704.32
2022-08-22T10:38:54.431Z,41738.24
2022-08-22T10:39:54.643Z,39485.44
2022-08-22T10:40:54.685Z,39342.08
2022-08-22T10:41:54.783Z,39690.24
2022-08-22T10:42:54.884Z,40345.6
2022-08-22T10:43:56.479Z,42270.72
2022-08-22T10:44:55.436Z,45670.4
2022-08-22T10:45:55.335Z,47882.24
2022-08-22T10:46:55.449Z,42393.6
2022-08-22T10:47:55.883Z,50503.68
2022-08-22T10:48:55.701Z,48414.72
2022-08-22T10:49:55.850Z,52224
2022-08-22T10:50:56.006Z,55214.08
2022-08-22T10:51:56.154Z,54886.4
2022-08-22T10:52:56.327Z,48783.36
2022-08-22T10:53:56.359Z,50831.36
2022-08-22T10:54:56.514Z,51486.72
2022-08-22T10:55:56.683Z,48005.12
2022-08-22T10:56:56.784Z,47308.8
2022-08-22T10:57:56.914Z,45178.88
2022-08-22T10:58:57.065Z,41820.16
2022-08-22T10:59:57.181Z,42598.4
2022-08-22T11:00:57.345Z,42229.76
2022-08-22T11:01:57.446Z,42393.6
2022-08-22T11:02:57.727Z,43089.92
2022-08-22T11:03:57.672Z,41984
2022-08-22T11:04:57.806Z,39464.96
2022-08-22T11:05:57.880Z,38031.36
2022-08-22T11:06:57.978Z,37601.28
2022-08-22T11:07:58.095Z,36618.24
2022-08-22T11:08:58.240Z,35614.72
2022-08-22T11:09:58.340Z,35491.84
2022-08-22T11:10:58.437Z,34918.4
2022-08-22T11:11:58.600Z,34304
2022-08-22T11:12:58.863Z,34222.08
2022-08-22T11:13:58.842Z,34242.56
2022-08-22T11:14:58.945Z,34078.72
2022-08-22T11:15:59.098Z,33894.4
2022-08-22T11:16:59.261Z,33832.96
2022-08-22T11:17:59.354Z,33976.32
2022-08-22T11:19:02.101Z,34938.88
2022-08-22T11:19:59.655Z,35409.92
2022-08-22T11:20:59.763Z,36474.88
2022-08-22T11:21:59.911Z,36515.84
2022-08-22T11:23:00.148Z,35594.24
2022-08-22T11:24:00.703Z,36249.6
2022-08-22T11:25:04.141Z,36945.92
2022-08-22T11:26:00.467Z,36802.56
2022-08-22T11:27:00.578Z,36556.8
2022-08-22T11:28:00.724Z,39116.8
2022-08-22T11:29:07.840Z,40816.64
2022-08-22T11:30:01.376Z,42147.84
2022-08-22T11:31:01.177Z,43581.44
2022-08-22T11:32:05.908Z,45219.84
2022-08-22T11:33:01.591Z,46653.44
2022-08-22T11:34:01.535Z,47104
2022-08-22T11:35:01.637Z,40448
2022-08-22T11:36:04.541Z,49438.72
2022-08-22T11:37:01.934Z,51281.92
2022-08-22T11:38:03.026Z,52387.84
2022-08-22T11:39:02.205Z,46039.04
2022-08-22T11:40:02.385Z,45137.92
2022-08-22T11:41:02.454Z,39219.2
2022-08-22T11:42:02.601Z,38543.36
2022-08-22T11:43:03.393Z,40038.4
2022-08-22T11:44:03.425Z,37457.92
2022-08-22T11:45:02.956Z,36986.88
2022-08-22T11:46:03.094Z,36802.56
2022-08-22T11:47:03.210Z,38440.96
2022-08-22T11:48:03.359Z,37089.28
2022-08-22T11:49:03.510Z,34467.84
2022-08-22T11:50:03.614Z,33546.24
2022-08-22T11:51:03.715Z,33464.32
2022-08-22T11:52:03.874Z,32440.32
2022-08-22T11:53:04.000Z,31191.04
2022-08-22T11:54:04.134Z,29839.36
2022-08-22T11:55:04.259Z,28815.36
2022-08-22T11:56:05.359Z,28364.8
2022-08-22T11:57:04.476Z,27648
2022-08-22T11:58:04.628Z,26992.64
2022-08-22T11:59:04.732Z,27443.2
2022-08-22T12:00:04.834Z,27934.72
2022-08-22T12:01:04.982Z,28590.08
2022-08-22T12:02:05.156Z,28774.4
2022-08-22T12:03:05.243Z,28487.68
2022-08-22T12:04:05.343Z,28508.16
2022-08-22T12:05:05.442Z,29102.08
2022-08-22T12:06:05.599Z,29450.24
2022-08-22T12:07:05.698Z,29470.72
2022-08-22T12:08:05.849Z,29245.44
2022-08-22T12:09:05.954Z,28876.8
2022-08-22T12:10:06.054Z,28508.16
2022-08-22T12:11:06.203Z,28385.28
2022-08-22T12:12:06.364Z,28262.4
2022-08-22T12:13:06.474Z,28323.84
2022-08-22T12:14:06.802Z,28508.16
2022-08-22T12:15:09.069Z,28590.08
2022-08-22T12:16:06.804Z,28631.04
2022-08-22T12:17:06.924Z,28897.28
2022-08-22T12:18:07.117Z,29040.64
2022-08-22T12:19:07.219Z,29286.4